RGA weather

Hermes Quijada International Airport
Rio Grande, Tierra del Fuego Province, Argentina

Public forecast

Using degrees Celsius for public forecast. Weather courtesy of forecast.io.

Current aviation weather report (METAR) for Hermes Quijada International Airport

Retrieved 2019/11/14 15:00 UTC (12 minutes ago):

SAWE 141500Z 36010KT 9999 FEW022 10/08 Q1002

Aviation forecast (TAF) for Hermes Quijada International Airport

Retrieved 2019/11/14 12:03 UTC (3 hours ago):

TAF TAF SAWE 141100Z 1412/1512 02005KT 5000 BR SCT005 OVC070 TX16/1418Z TN05/1412Z PROB30 TEMPO 1414/1418 34015G30KT 9999 -TSRA SCT015 SCT040TCU OVC050 BECMG 1421/1423 34020G35KT 4000 SHRA SCT030 OVC050 BECMG 1503/1505 32015KT 9999 NSW SCT030 OVC070